Time;durP1;ratioP1;P1;durP2;ratioP2;P2;SDS_P1;SDS_P2;PMS_P1;PMS_P2;Temp;Humidity;BMP_temperature;BMP_pressure;BME280_temperature;BME280_humidity;BME280_pressure;Samples;Min_cycle;Max_cycle;Signal;HPM_P1;HPM_P2
2022/01/31 00:01:32;;;;;;;31.85;10.07;;;;;;;4.58;72.63;101487.63;5091938;28;20028;-66
2022/01/31 00:03:57;;;;;;;20.48;9.50;;;;;;;4.62;71.84;101479.59;5092782;28;20051;-66
2022/01/31 00:06:23;;;;;;;24.67;9.98;;;;;;;4.52;72.25;101438.59;5099989;28;20055;-66
2022/01/31 00:08:50;;;;;;;26.02;9.70;;;;;;;4.59;71.80;101424.38;5094697;28;20502;-66
2022/01/31 00:11:16;;;;;;;21.70;9.43;;;;;;;4.50;72.57;101400.91;5077517;28;20034;-66
2022/01/31 00:13:45;;;;;;;20.77;9.50;;;;;;;4.52;72.51;101393.84;5096966;28;20115;-66
2022/01/31 00:16:16;;;;;;;19.52;9.20;;;;;;;4.51;72.33;101395.59;5093650;28;20126;-66
2022/01/31 00:18:41;;;;;;;21.60;9.25;;;;;;;4.50;73.11;101403.53;5096435;28;20023;-66
2022/01/31 00:21:11;;;;;;;28.88;10.07;;;;;;;4.57;73.15;101394.56;5093888;28;21475;-66
2022/01/31 00:23:41;;;;;;;24.85;9.95;;;;;;;4.54;73.47;101374.44;5092836;28;20023;-66
2022/01/31 00:26:07;;;;;;;26.48;9.20;;;;;;;4.56;72.98;101369.16;5079173;28;20032;-66
2022/01/31 00:28:33;;;;;;;25.63;9.50;;;;;;;4.62;72.70;101361.06;5093576;28;20717;-67
2022/01/31 00:30:58;;;;;;;21.13;9.30;;;;;;;4.63;74.04;101354.88;5095380;28;20830;-66
2022/01/31 00:33:23;;;;;;;27.17;9.30;;;;;;;4.57;74.33;101341.88;5094079;28;20482;-66
2022/01/31 00:35:49;;;;;;;22.42;9.48;;;;;;;4.66;73.51;101328.44;5094902;28;20069;-66
2022/01/31 00:38:14;;;;;;;27.63;8.52;;;;;;;4.61;74.57;101316.31;5094813;28;20028;-66
2022/01/31 00:40:42;;;;;;;23.40;9.38;;;;;;;4.57;75.14;101307.66;5095362;28;20177;-66
2022/01/31 00:43:12;;;;;;;20.17;9.02;;;;;;;4.54;75.67;101292.78;5076148;28;20024;-66
2022/01/31 00:45:44;;;;;;;23.77;9.27;;;;;;;4.35;76.89;101253.91;5093895;28;20589;-66
2022/01/31 00:48:16;;;;;;;21.33;8.80;;;;;;;4.52;76.83;101270.03;5076230;28;20031;-66
2022/01/31 00:50:44;;;;;;;28.67;9.57;;;;;;;4.46;78.40;101257.06;5093055;28;20024;-66
2022/01/31 00:53:12;;;;;;;25.45;9.80;;;;;;;4.47;79.19;101238.59;5092136;28;20024;-66
2022/01/31 00:55:37;;;;;;;25.63;10.13;;;;;;;4.43;79.49;101229.03;5095479;28;20103;-66
2022/01/31 00:58:03;;;;;;;25.67;9.40;;;;;;;4.39;80.78;101230.06;5093751;28;20565;-66
2022/01/31 01:00:29;;;;;;;21.20;9.07;;;;;;;4.36;81.52;101213.50;5093878;28;20054;-66
2022/01/31 01:02:55;;;;;;;25.40;9.38;;;;;;;4.34;81.92;101200.38;5093104;28;20070;-66
2022/01/31 01:05:20;;;;;;;30.30;10.15;;;;;;;4.33;82.37;101190.75;5095511;28;20047;-66
2022/01/31 01:07:46;;;;;;;32.30;10.40;;;;;;;4.20;82.32;101181.50;5093263;28;20376;-66
2022/01/31 01:10:13;;;;;;;30.13;10.68;;;;;;;4.28;83.05;101193.53;5095470;28;20489;-66
2022/01/31 01:12:39;;;;;;;32.88;10.60;;;;;;;4.26;83.94;101176.91;5095274;28;20027;-66
2022/01/31 01:15:05;;;;;;;22.58;9.82;;;;;;;4.31;83.39;101167.09;5092633;28;20024;-66
2022/01/31 01:17:30;;;;;;;28.48;9.85;;;;;;;4.33;84.21;101146.00;5093511;28;20031;-67
2022/01/31 01:19:56;;;;;;;26.33;9.75;;;;;;;4.32;84.55;101150.41;5093006;28;20035;-66
2022/01/31 01:22:22;;;;;;;26.55;10.10;;;;;;;4.47;85.03;101122.72;5096944;28;20046;-66
2022/01/31 01:24:48;;;;;;;28.83;10.07;;;;;;;4.32;86.27;101125.81;5103230;28;20024;-66
2022/01/31 01:27:19;;;;;;;29.08;9.95;;;;;;;4.23;86.42;101112.97;5092666;28;20024;-66
2022/01/31 01:29:46;;;;;;;26.40;9.60;;;;;;;4.43;85.53;101099.16;5091908;28;20127;-66
2022/01/31 01:32:11;;;;;;;24.73;9.43;;;;;;;4.31;86.38;101097.78;5092742;28;20455;-66
2022/01/31 01:34:37;;;;;;;28.13;10.77;;;;;;;4.27;87.41;101096.19;5092008;28;20470;-66
2022/01/31 01:37:03;;;;;;;34.58;10.85;;;;;;;4.33;87.42;101081.03;5093533;28;20099;-66
2022/01/31 01:39:29;;;;;;;30.90;10.50;;;;;;;4.29;87.87;101071.53;5093132;28;20015;-66
2022/01/31 01:41:55;;;;;;;25.40;10.32;;;;;;;4.33;88.18;101067.88;5093402;28;20042;-66
2022/01/31 01:44:45;;;;;;;30.38;10.00;;;;;;;4.48;86.07;101076.16;5094347;28;20174;-66
2022/01/31 01:47:11;;;;;;;;;;;;;;;4.38;86.08;101057.16;5083640;28;20067;-66
2022/01/31 01:49:37;;;;;;;25.58;8.32;;;;;;;4.42;87.39;101042.16;5091486;28;19951;-66
2022/01/31 01:52:03;;;;;;;26.77;10.02;;;;;;;4.42;87.55;101024.56;5073322;28;20039;-66
2022/01/31 01:54:28;;;;;;;25.90;10.07;;;;;;;4.30;88.74;101002.16;5093784;28;20096;-66
2022/01/31 01:56:54;;;;;;;26.05;10.20;;;;;;;4.40;89.12;101002.69;5092194;28;20475;-66
2022/01/31 01:59:19;;;;;;;32.40;10.77;;;;;;;4.38;89.69;100990.47;5092788;28;20359;-66
2022/01/31 02:01:45;;;;;;;27.88;10.15;;;;;;;4.25;90.16;100975.13;5092701;28;20085;-66
2022/01/31 02:04:10;;;;;;;22.33;9.35;;;;;;;4.37;90.05;100967.72;5095679;28;20112;-66
2022/01/31 02:06:35;;;;;;;21.70;8.98;;;;;;;4.42;89.92;100966.63;5090350;28;20036;-66
2022/01/31 02:09:03;;;;;;;21.27;9.60;;;;;;;4.42;90.40;100976.31;5075920;28;20028;-66
2022/01/31 02:11:30;;;;;;;25.90;9.73;;;;;;;4.44;90.44;100956.91;5091061;28;20487;-66
2022/01/31 02:13:56;;;;;;;24.10;8.38;;;;;;;4.44;90.34;100938.47;5073238;28;20032;-66
2022/01/31 02:16:22;;;;;;;18.98;8.65;;;;;;;4.49;90.35;100943.56;5091437;28;20596;-66
2022/01/31 02:18:52;;;;;;;24.35;8.70;;;;;;;4.47;91.09;100941.00;5093026;28;20028;-66
2022/01/31 02:21:17;;;;;;;21.35;9.23;;;;;;;4.52;91.30;100931.13;5091883;28;20372;-66
2022/01/31 02:23:44;;;;;;;18.60;8.95;;;;;;;4.38;90.55;100888.66;5090441;28;20042;-66
2022/01/31 02:26:10;;;;;;;20.83;8.45;;;;;;;4.43;91.68;100920.94;5093545;28;20055;-66
2022/01/31 02:28:37;;;;;;;19.08;9.07;;;;;;;4.47;91.93;100919.06;5090838;28;20060;-67
2022/01/31 02:31:04;;;;;;;19.90;8.18;;;;;;;4.39;92.28;100913.22;5093564;28;20062;-66
2022/01/31 02:33:30;;;;;;;17.98;8.20;;;;;;;4.51;91.98;100934.69;5091968;28;20433;-66
2022/01/31 02:36:01;;;;;;;22.55;9.20;;;;;;;4.51;93.20;100921.53;5091347;28;20051;-66
2022/01/31 02:38:28;;;;;;;18.40;9.35;;;;;;;4.54;93.02;100929.31;5089640;28;20027;-66
2022/01/31 02:40:54;;;;;;;20.92;9.45;;;;;;;4.56;93.49;100931.91;5094495;28;20028;-66
2022/01/31 02:43:24;;;;;;;18.75;8.65;;;;;;;4.61;93.85;100913.28;5091148;28;20028;-66
2022/01/31 02:45:52;;;;;;;13.38;8.68;;;;;;;4.63;93.28;100885.13;5100386;28;20026;-66
2022/01/31 02:48:21;;;;;;;22.33;9.82;;;;;;;4.64;93.31;100886.81;5088446;28;20039;-66
2022/01/31 02:50:47;;;;;;;13.82;9.18;;;;;;;4.69;93.19;100879.63;5090167;28;20028;-66
2022/01/31 02:53:24;;;;;;;13.57;8.90;;;;;;;4.77;93.45;100881.03;5090068;28;20017;-66
2022/01/31 02:55:54;;;;;;;14.20;9.32;;;;;;;4.72;93.90;100875.09;5090360;28;20074;-66
2022/01/31 02:58:22;;;;;;;14.77;8.60;;;;;;;4.80;94.33;100880.06;5090074;28;20073;-66
2022/01/31 03:00:49;;;;;;;13.85;9.05;;;;;;;4.87;94.02;100872.78;5088747;28;20028;-66
2022/01/31 03:03:14;;;;;;;17.83;9.48;;;;;;;4.87;94.40;100883.31;5091954;28;20100;-66
2022/01/31 03:05:39;;;;;;;16.92;9.85;;;;;;;4.90;95.00;100870.03;5099991;28;20374;-66
2022/01/31 03:08:06;;;;;;;17.20;9.73;;;;;;;4.95;94.73;100882.09;5089231;28;20031;-66
2022/01/31 03:10:32;;;;;;;17.73;10.15;;;;;;;4.99;95.53;100882.84;5089986;28;20028;-66
2022/01/31 03:12:58;;;;;;;16.17;9.15;;;;;;;4.98;95.32;100876.72;5089898;28;20020;-66
2022/01/31 03:15:26;;;;;;;18.20;9.75;;;;;;;5.04;95.42;100886.16;5087134;28;20501;-66
2022/01/31 03:17:54;;;;;;;18.85;9.25;;;;;;;5.08;95.55;100884.25;5089918;28;20028;-66
2022/01/31 03:20:20;;;;;;;19.25;8.82;;;;;;;5.11;95.42;100869.16;5088717;28;20024;-66
2022/01/31 03:22:47;;;;;;;21.00;8.45;;;;;;;5.14;95.65;100870.81;5090586;28;20147;-66
2022/01/31 03:25:14;;;;;;;18.15;8.45;;;;;;;5.15;94.94;100846.19;5089865;28;20090;-66
2022/01/31 03:27:40;;;;;;;22.17;9.00;;;;;;;5.15;95.29;100843.56;5093213;28;20023;-66
2022/01/31 03:30:12;;;;;;;21.15;8.25;;;;;;;5.16;94.45;100856.66;5091545;28;20040;-66
2022/01/31 03:32:38;;;;;;;17.50;8.10;;;;;;;5.20;95.25;100857.38;5090016;28;20031;-66
2022/01/31 03:35:04;;;;;;;21.25;7.95;;;;;;;5.21;94.44;100854.69;5091282;28;20386;-66
2022/01/31 03:37:30;;;;;;;18.63;7.70;;;;;;;5.23;94.41;100846.72;5091004;28;20089;-66
2022/01/31 03:39:56;;;;;;;18.05;7.93;;;;;;;5.24;94.66;100835.28;5092073;28;20479;-66
2022/01/31 03:42:21;;;;;;;22.38;7.95;;;;;;;5.23;95.19;100842.31;5090473;28;20020;-66
2022/01/31 03:44:47;;;;;;;22.75;7.63;;;;;;;5.29;94.71;100830.63;5090130;28;20035;-66
2022/01/31 03:47:14;;;;;;;17.88;7.65;;;;;;;5.26;94.89;100822.84;5090356;28;20450;-66
2022/01/31 03:49:39;;;;;;;30.48;7.63;;;;;;;5.32;93.69;100812.06;5092059;28;20028;-66
2022/01/31 03:52:07;;;;;;;21.58;6.63;;;;;;;5.29;93.60;100809.53;5090518;28;20039;-66
2022/01/31 03:54:34;;;;;;;25.77;7.18;;;;;;;5.35;93.90;100827.75;5089255;28;20035;-66
2022/01/31 03:56:59;;;;;;;24.92;7.75;;;;;;;5.40;92.76;100824.94;5088867;28;20028;-66
2022/01/31 03:59:24;;;;;;;28.15;6.78;;;;;;;5.37;92.69;100822.41;5091132;28;20115;-67
2022/01/31 04:01:50;;;;;;;21.98;7.35;;;;;;;5.41;92.30;100819.59;5090764;28;20020;-66
2022/01/31 04:04:15;;;;;;;14.85;6.15;;;;;;;5.44;91.62;100839.69;5091301;28;20107;-66
2022/01/31 04:06:41;;;;;;;22.98;6.70;;;;;;;5.47;90.48;100837.81;5089908;28;20386;-66
2022/01/31 04:09:07;;;;;;;18.48;6.32;;;;;;;5.51;90.72;100833.25;5092422;28;20024;-66
2022/01/31 04:11:37;;;;;;;21.10;6.60;;;;;;;5.53;89.59;100846.34;5088890;28;20020;-66
2022/01/31 04:14:03;;;;;;;20.02;6.72;;;;;;;5.46;89.75;100814.97;5089511;28;20103;-66
2022/01/31 04:16:28;;;;;;;26.90;6.60;;;;;;;5.60;88.24;100829.38;5090251;28;20120;-66
2022/01/31 04:18:54;;;;;;;20.60;6.20;;;;;;;5.59;88.75;100825.88;5089993;28;20390;-67
2022/01/31 04:21:21;;;;;;;18.13;5.53;;;;;;;5.62;88.00;100822.25;5089075;28;20035;-66
2022/01/31 04:23:47;;;;;;;29.92;6.65;;;;;;;5.58;87.51;100804.81;5091426;28;20028;-66
2022/01/31 04:26:15;;;;;;;20.92;6.50;;;;;;;5.60;88.01;100811.75;5090659;28;20089;-66
2022/01/31 04:28:46;;;;;;;19.92;5.35;;;;;;;5.62;86.86;100806.44;5071759;28;20029;-66
2022/01/31 04:33:46;;;;;;;18.23;5.85;;;;;;;5.61;85.87;100802.06;5092354;28;20039;-66
2022/01/31 04:36:15;;;;;;;18.70;6.43;;;;;;;5.60;85.93;100813.53;5088471;28;20036;-66
2022/01/31 04:38:45;;;;;;;22.75;5.90;;;;;;;5.61;84.67;100805.53;5089556;28;20494;-67
2022/01/31 04:41:11;;;;;;;24.65;6.43;;;;;;;5.60;85.38;100806.47;5088435;28;20107;-66
2022/01/31 04:43:37;;;;;;;26.67;5.95;;;;;;;5.60;85.41;100809.13;5093544;28;20436;-66
2022/01/31 04:46:06;;;;;;;25.08;6.15;;;;;;;5.56;84.49;100810.19;5090668;28;20069;-66
2022/01/31 04:48:33;;;;;;;23.63;5.65;;;;;;;5.58;84.75;100808.31;5071826;28;20024;-67
2022/01/31 04:50:58;;;;;;;24.20;5.78;;;;;;;5.58;83.14;100799.53;5091829;28;20027;-66
2022/01/31 04:53:26;;;;;;;19.23;5.80;;;;;;;5.58;83.10;100794.28;5091798;28;20028;-66
2022/01/31 04:55:52;;;;;;;22.05;6.53;;;;;;;5.54;83.43;100806.75;5091937;28;20105;-66
2022/01/31 04:58:21;;;;;;;20.00;5.70;;;;;;;5.55;82.59;100812.88;5095185;28;20038;-66
2022/01/31 05:00:47;;;;;;;17.88;5.32;;;;;;;5.54;82.02;100804.09;5094516;28;20112;-67
2022/01/31 05:03:17;;;;;;;18.20;5.50;;;;;;;5.54;81.19;100801.47;5098555;28;20031;-67
2022/01/31 05:05:43;;;;;;;18.08;5.07;;;;;;;5.43;81.32;100788.72;5094687;28;20032;-67
2022/01/31 05:08:09;;;;;;;20.75;5.90;;;;;;;5.53;81.06;100806.78;5095729;28;20023;-67
2022/01/31 05:10:42;;;;;;;22.25;6.47;;;;;;;5.52;81.56;100805.09;5091310;28;20509;-67
2022/01/31 05:13:11;;;;;;;21.65;6.53;;;;;;;5.52;79.96;100779.56;5095058;28;20035;-67
2022/01/31 05:15:37;;;;;;;19.42;5.82;;;;;;;5.53;80.33;100789.22;5096672;28;20020;-67
2022/01/31 05:18:02;;;;;;;15.73;5.65;;;;;;;5.52;80.66;100779.56;5093972;28;20141;-67
2022/01/31 05:20:28;;;;;;;23.83;5.80;;;;;;;5.53;80.25;100783.94;5095013;28;20028;-67
2022/01/31 05:22:54;;;;;;;23.17;5.70;;;;;;;5.53;80.66;100769.88;5103685;28;20441;-67
2022/01/31 05:25:19;;;;;;;21.60;5.72;;;;;;;5.60;79.22;100771.31;5094796;28;20402;-67
2022/01/31 05:27:45;;;;;;;20.25;5.03;;;;;;;5.51;79.49;100763.81;5103230;28;20032;-67
2022/01/31 05:30:11;;;;;;;23.05;6.03;;;;;;;5.51;79.70;100755.91;5092098;28;20052;-67
2022/01/31 05:32:36;;;;;;;19.85;5.90;;;;;;;5.54;79.52;100769.81;5095416;28;20038;-67
2022/01/31 05:35:04;;;;;;;18.15;5.43;;;;;;;5.55;79.53;100762.75;5091964;28;20036;-67
2022/01/31 05:37:34;;;;;;;21.05;6.47;;;;;;;5.56;79.87;100767.97;5093195;28;20055;-67
2022/01/31 05:40:00;;;;;;;22.98;5.93;;;;;;;5.56;80.29;100743.34;5094689;28;20035;-67
2022/01/31 05:42:25;;;;;;;22.65;6.05;;;;;;;5.55;80.99;100754.84;5112965;28;20366;-67
2022/01/31 05:44:50;;;;;;;24.02;5.82;;;;;;;5.53;80.42;100761.94;5093672;28;20391;-67
2022/01/31 05:47:16;;;;;;;23.05;6.93;;;;;;;5.51;80.53;100737.44;5095701;28;20032;-67
2022/01/31 05:49:42;;;;;;;22.17;6.28;;;;;;;5.46;80.37;100735.84;5091838;28;20077;-67
2022/01/31 05:52:08;;;;;;;24.75;5.68;;;;;;;5.46;81.64;100725.28;5093949;28;20486;-67
2022/01/31 05:54:36;;;;;;;23.60;5.95;;;;;;;5.45;82.04;100733.28;5093825;28;20077;-67
2022/01/31 05:57:03;;;;;;;20.83;5.93;;;;;;;5.40;82.27;100725.56;5092136;28;20386;-67
2022/01/31 05:59:32;;;;;;;19.38;5.72;;;;;;;5.40;81.78;100743.16;5095903;28;20020;-67
2022/01/31 06:01:58;;;;;;;26.23;6.47;;;;;;;5.35;82.81;100745.13;5093436;28;20031;-67
2022/01/31 06:04:30;;;;;;;20.95;6.07;;;;;;;5.37;84.23;100745.94;5091900;28;20459;-67
2022/01/31 06:06:55;;;;;;;17.13;5.75;;;;;;;5.22;84.64;100750.94;5094622;28;20012;-67
2022/01/31 06:09:21;;;;;;;17.92;5.38;;;;;;;5.11;85.25;100739.13;5074106;28;20505;-67
2022/01/31 06:11:49;;;;;;;24.80;6.53;;;;;;;5.21;84.29;100753.66;5092317;28;20098;-67
2022/01/31 06:14:18;;;;;;;22.52;7.20;;;;;;;5.16;84.21;100763.53;5092752;28;20517;-66
2022/01/31 06:16:46;;;;;;;21.58;5.45;;;;;;;5.12;85.09;100769.88;5093232;28;20032;-66
2022/01/31 06:19:14;;;;;;;24.83;5.78;;;;;;;5.13;84.61;100772.44;5092370;28;20024;-67
2022/01/31 06:21:39;;;;;;;23.65;5.82;;;;;;;5.09;85.13;100770.84;5091661;28;20103;-67
2022/01/31 06:24:09;;;;;;;18.88;5.65;;;;;;;5.10;85.36;100792.78;5092586;28;20605;-67
2022/01/31 06:26:36;;;;;;;17.90;5.28;;;;;;;5.08;85.94;100787.56;5093287;28;20020;-66
2022/01/31 06:29:02;;;;;;;20.23;5.85;;;;;;;5.06;85.93;100765.72;5093013;28;20051;-66
2022/01/31 06:31:29;;;;;;;24.10;5.60;;;;;;;5.06;84.88;100778.00;5091541;28;20130;-66
2022/01/31 06:33:54;;;;;;;21.25;5.88;;;;;;;5.05;85.36;100766.59;5093133;28;20036;-67
2022/01/31 06:36:22;;;;;;;23.85;5.38;;;;;;;5.04;84.53;100777.22;5087620;28;20038;-66
2022/01/31 06:38:47;;;;;;;16.73;6.13;;;;;;;4.99;84.11;100765.09;5090794;28;20024;-66
2022/01/31 06:41:17;;;;;;;19.92;5.68;;;;;;;4.99;84.12;100761.59;5091133;28;20043;-67
2022/01/31 06:43:43;;;;;;;;;;;;;;;5.03;83.28;100776.38;5094022;28;20441;-67
2022/01/31 06:46:09;;;;;;;20.73;6.63;;;;;;;4.97;84.08;100769.59;5090701;28;19916;-67
2022/01/31 06:48:34;;;;;;;23.05;6.28;;;;;;;4.97;83.15;100772.22;5092178;28;20109;-66
2022/01/31 06:50:59;;;;;;;18.83;6.07;;;;;;;4.95;83.33;100774.03;5092265;28;20043;-67
2022/01/31 06:53:27;;;;;;;18.55;6.22;;;;;;;4.92;83.70;100771.53;5093807;28;20474;-67
2022/01/31 06:55:54;;;;;;;23.88;5.35;;;;;;;4.91;83.84;100761.94;5092050;28;20406;-67
2022/01/31 06:58:20;;;;;;;18.17;6.10;;;;;;;4.89;83.34;100782.22;5091040;28;20032;-66
2022/01/31 07:00:45;;;;;;;22.80;6.57;;;;;;;4.89;83.33;100781.34;5075142;28;20031;-67
2022/01/31 07:03:13;;;;;;;35.95;6.63;;;;;;;4.86;83.29;100779.69;5091712;28;20467;-66
2022/01/31 07:05:39;;;;;;;20.85;6.63;;;;;;;4.82;85.04;100775.44;5090924;28;20028;-68
2022/01/31 07:08:06;;;;;;;23.55;5.63;;;;;;;4.83;84.27;100774.56;5076922;28;20024;-67
2022/01/31 07:10:31;;;;;;;25.77;6.28;;;;;;;4.84;84.81;100775.41;5091725;28;20034;-67
2022/01/31 07:13:02;;;;;;;19.77;6.35;;;;;;;4.82;85.38;100764.06;5090944;28;20043;-67
2022/01/31 07:15:27;;;;;;;24.55;7.00;;;;;;;4.83;84.55;100768.44;5093354;28;20114;-67
2022/01/31 07:17:54;;;;;;;23.77;6.57;;;;;;;4.85;84.35;100761.31;5092893;28;20107;-67
2022/01/31 07:20:23;;;;;;;18.58;6.25;;;;;;;4.85;84.76;100758.66;5090888;28;20020;-67
2022/01/31 07:22:56;;;;;;;19.95;6.53;;;;;;;4.81;85.11;100750.03;5091664;28;20030;-67
2022/01/31 07:25:34;;;;;;;23.52;6.03;;;;;;;4.86;84.90;100763.03;5093106;28;20027;-66
2022/01/31 07:28:02;;;;;;;24.25;6.63;;;;;;;4.82;85.89;100745.63;5092977;28;20449;-67
2022/01/31 07:30:28;;;;;;;20.75;6.70;;;;;;;4.76;85.40;100738.81;5089187;28;20058;-67
2022/01/31 07:32:54;;;;;;;25.42;6.28;;;;;;;4.80;85.30;100742.22;5090200;28;20102;-67
2022/01/31 07:35:21;;;;;;;26.42;7.25;;;;;;;4.76;85.59;100731.81;5088598;28;20483;-67
2022/01/31 07:37:46;;;;;;;29.50;6.60;;;;;;;4.80;84.77;100753.59;5089682;28;20024;-67
2022/01/31 07:40:12;;;;;;;24.73;7.18;;;;;;;4.84;84.78;100759.59;5089122;28;20027;-67
2022/01/31 07:42:38;;;;;;;31.10;7.28;;;;;;;4.86;85.66;100755.13;5090091;28;20028;-66
2022/01/31 07:45:04;;;;;;;28.77;7.00;;;;;;;4.87;85.23;100791.94;5089543;28;20032;-67
2022/01/31 07:47:29;;;;;;;23.85;6.55;;;;;;;4.85;85.65;100780.59;5090321;28;20491;-67
2022/01/31 07:49:55;;;;;;;26.33;6.90;;;;;;;4.84;86.06;100788.59;5089283;28;20048;-66
2022/01/31 07:52:20;;;;;;;25.40;7.43;;;;;;;4.83;86.39;100789.50;5091860;28;20071;-66
2022/01/31 07:54:46;;;;;;;21.85;6.93;;;;;;;4.83;85.81;100779.81;5089276;28;20111;-67
2022/01/31 07:57:11;;;;;;;27.15;7.07;;;;;;;4.83;85.87;100787.72;5091432;28;20032;-66
2022/01/31 07:59:37;;;;;;;37.00;8.10;;;;;;;4.82;85.91;100780.72;5089835;28;20432;-66
2022/01/31 08:02:02;;;;;;;30.75;8.07;;;;;;;4.83;84.61;100787.72;5093516;28;20023;-66
2022/01/31 08:04:30;;;;;;;29.75;8.05;;;;;;;4.83;84.68;100782.47;5094410;28;20043;-66
2022/01/31 08:06:56;;;;;;;24.73;8.02;;;;;;;4.87;85.27;100772.66;5090903;28;20032;-67
2022/01/31 08:09:21;;;;;;;23.02;7.47;;;;;;;4.86;85.11;100777.06;5090050;28;20073;-66
2022/01/31 08:11:47;;;;;;;31.67;7.65;;;;;;;4.86;84.80;100786.75;5091019;28;20069;-67
2022/01/31 08:14:17;;;;;;;26.77;6.95;;;;;;;4.89;83.86;100776.94;5087897;28;20480;-66
2022/01/31 08:16:42;;;;;;;27.70;8.15;;;;;;;4.92;83.90;100781.22;5090679;28;20056;-68
2022/01/31 08:19:11;;;;;;;30.30;7.10;;;;;;;4.92;84.42;100782.09;5089392;28;20058;-66
2022/01/31 08:21:39;;;;;;;31.20;7.47;;;;;;;4.91;83.79;100775.09;5090139;28;20032;-66
2022/01/31 08:24:05;;;;;;;36.08;8.68;;;;;;;4.96;84.02;100782.81;5090640;28;20403;-67
2022/01/31 08:26:32;;;;;;;38.22;7.90;;;;;;;4.95;84.47;100791.66;5091047;28;20031;-67
2022/01/31 08:29:05;;;;;;;35.70;7.78;;;;;;;4.96;84.94;100802.09;5093413;28;20040;-67
2022/01/31 08:31:35;;;;;;;26.42;7.80;;;;;;;4.94;85.15;100793.44;5081456;28;20052;-67
2022/01/31 08:34:17;;;;;;;23.98;7.57;;;;;;;4.93;85.08;100794.31;5056621;28;20438;-67
2022/01/31 08:36:46;;;;;;;33.38;8.40;;;;;;;4.91;84.94;100812.00;5072749;28;20107;-66
2022/01/31 08:39:17;;;;;;;32.90;8.32;;;;;;;4.93;84.87;100804.00;5072605;28;20032;-66
2022/01/31 08:41:48;;;;;;;36.42;8.85;;;;;;;4.92;84.41;100810.22;5085246;28;20103;-66
2022/01/31 08:44:18;;;;;;;42.30;8.80;;;;;;;4.92;85.53;100811.06;5093719;28;20509;-66
2022/01/31 08:46:48;;;;;;;32.22;9.02;;;;;;;4.88;84.68;100800.69;5094096;28;20118;-66
2022/01/31 08:49:14;;;;;;;33.85;9.20;;;;;;;4.96;84.25;100809.16;5093617;28;20450;-66
2022/01/31 08:51:41;;;;;;;33.78;7.45;;;;;;;5.00;84.76;100803.72;5093768;28;20467;-66
2022/01/31 08:54:06;;;;;;;32.70;8.85;;;;;;;4.96;84.50;100791.56;5089889;28;20024;-67
2022/01/31 08:56:38;;;;;;;38.13;9.02;;;;;;;5.00;84.36;100806.34;5086461;28;20544;-66
2022/01/31 08:59:05;;;;;;;29.88;8.63;;;;;;;4.96;84.95;100795.97;5092998;28;20028;-66
2022/01/31 09:01:31;;;;;;;33.42;7.63;;;;;;;4.99;84.45;100799.34;5091332;28;20039;-66
2022/01/31 09:04:04;;;;;;;35.85;8.82;;;;;;;5.03;84.88;100807.13;5090799;28;20415;-67
2022/01/31 09:06:32;;;;;;;34.85;8.27;;;;;;;5.04;84.76;100825.53;5085863;28;20032;-66
2022/01/31 09:09:00;;;;;;;35.25;8.45;;;;;;;5.05;85.56;100821.09;5088869;28;20024;-66
2022/01/31 09:11:27;;;;;;;36.15;8.02;;;;;;;4.98;86.13;100823.16;5096207;28;20482;-67
2022/01/31 09:13:55;;;;;;;34.40;7.90;;;;;;;4.96;86.76;100840.78;5093540;28;20390;-66
2022/01/31 09:16:22;;;;;;;28.08;7.57;;;;;;;4.96;85.95;100835.50;5088429;28;20028;-66
2022/01/31 09:18:48;;;;;;;30.67;7.00;;;;;;;4.97;86.87;100831.94;5092555;28;20053;-66
2022/01/31 09:21:14;;;;;;;34.55;8.02;;;;;;;4.96;85.14;100835.50;5091407;28;20035;-66
2022/01/31 09:23:39;;;;;;;31.27;7.97;;;;;;;4.96;85.19;100839.00;5092160;28;20032;-66
2022/01/31 09:26:05;;;;;;;24.75;6.55;;;;;;;4.97;87.53;100818.78;5093017;28;20032;-66
2022/01/31 09:28:33;;;;;;;32.35;7.15;;;;;;;5.00;85.80;100821.31;5092000;28;20034;-66
2022/01/31 09:30:59;;;;;;;30.75;7.40;;;;;;;5.01;84.69;100833.56;5092658;28;20047;-66
2022/01/31 09:33:26;;;;;;;37.58;8.07;;;;;;;5.02;85.43;100835.25;5092825;28;20076;-66
2022/01/31 09:35:51;;;;;;;32.38;7.40;;;;;;;5.02;85.30;100832.63;5093005;28;20051;-67
2022/01/31 09:38:21;;;;;;;33.17;7.75;;;;;;;5.06;86.45;100833.34;5092736;28;20505;-66
2022/01/31 09:40:47;;;;;;;35.47;7.97;;;;;;;5.06;84.88;100831.59;5091872;28;20016;-66
2022/01/31 09:48:41;;;;;;;35.58;7.78;;;;;;;5.07;84.85;100858.81;5092739;28;20115;-66
2022/01/31 09:51:15;;;;;;;36.80;8.50;;;;;;;5.05;86.08;100858.00;5092554;28;20024;-66
2022/01/31 09:53:49;;;;;;;33.85;8.65;;;;;;;4.97;86.37;100859.19;5091792;28;20040;-66
2022/01/31 09:56:21;;;;;;;30.55;8.10;;;;;;;4.93;86.67;100883.06;5092529;28;20028;-66
2022/01/31 09:58:48;;;;;;;35.42;9.10;;;;;;;4.87;86.94;100876.25;5092329;28;20020;-66
2022/01/31 10:01:15;;;;;;;35.53;9.18;;;;;;;4.91;87.40;100887.53;5090191;28;20032;-66
2022/01/31 10:03:54;;;;;;;36.88;8.63;;;;;;;4.92;87.15;100889.28;5092610;28;20051;-67
2022/01/31 10:06:31;;;;;;;35.45;8.85;;;;;;;4.91;87.08;100905.97;5091234;28;20099;-66
2022/01/31 10:09:13;;;;;;;40.70;8.68;;;;;;;4.91;87.23;100906.88;5090795;28;20036;-66
2022/01/31 10:11:49;;;;;;;46.30;9.02;;;;;;;4.88;87.26;100906.09;5092113;28;20024;-66
2022/01/31 10:17:06;;;;;;;45.47;9.27;;;;;;;4.89;87.83;100905.22;5092327;28;20032;-67
2022/01/31 10:19:43;;;;;;;40.25;8.73;;;;;;;4.92;87.44;100902.44;5092091;28;20081;-67
2022/01/31 10:22:12;;;;;;;35.08;9.18;;;;;;;4.92;87.42;100910.34;5092270;28;20413;-66
2022/01/31 10:24:39;;;;;;;52.65;10.80;;;;;;;4.96;86.71;100919.84;5090829;28;20463;-67
2022/01/31 10:27:28;;;;;;;42.80;9.75;;;;;;;4.99;86.63;100954.00;5092043;28;20077;-66
2022/01/31 10:30:07;;;;;;;48.33;11.35;;;;;;;4.98;85.83;100950.50;5091112;28;20414;-67
2022/01/31 10:32:34;;;;;;;54.80;10.32;;;;;;;5.03;84.29;100952.97;5091898;28;20436;-66
2022/01/31 10:35:04;;;;;;;39.72;8.95;;;;;;;5.02;83.21;100943.34;5090667;28;20065;-66
2022/01/31 10:37:32;;;;;;;45.05;9.73;;;;;;;5.04;83.74;100953.84;5090757;28;20046;-67
2022/01/31 10:56:38;;;;;;;44.08;10.30;;;;;;;5.18;80.44;100985.81;5091579;28;20047;-66
2022/01/31 10:59:08;;;;;;;48.75;10.50;;;;;;;5.16;81.31;100977.06;5089122;28;20032;-67
2022/01/31 11:01:34;;;;;;;43.88;9.75;;;;;;;5.11;81.22;100985.16;5089251;28;20051;-66
2022/01/31 11:04:04;;;;;;;39.83;8.73;;;;;;;5.08;81.81;100989.69;5091231;28;20478;-66
2022/01/31 11:06:31;;;;;;;40.50;10.43;;;;;;;5.04;81.62;100967.88;5090121;28;20020;-66
2022/01/31 11:09:02;;;;;;;40.17;9.13;;;;;;;5.06;82.15;100965.16;5091320;28;20024;-66
2022/01/31 11:11:31;;;;;;;45.00;9.50;;;;;;;5.06;82.32;100979.22;5093787;28;20364;-66
2022/01/31 11:13:59;;;;;;;40.90;9.25;;;;;;;5.09;83.34;100978.22;5094098;28;20394;-67
2022/01/31 11:16:25;;;;;;;41.33;10.48;;;;;;;5.08;82.40;100982.63;5089387;28;20509;-66
2022/01/31 11:18:51;;;;;;;43.33;9.73;;;;;;;5.08;83.17;100989.69;5091424;28;20028;-67
2022/01/31 11:21:19;;;;;;;49.03;9.82;;;;;;;5.09;83.33;100983.50;5090907;28;20141;-66
2022/01/31 11:23:50;;;;;;;43.10;9.65;;;;;;;5.11;83.29;100997.47;5090484;28;20118;-66
2022/01/31 11:26:18;;;;;;;39.03;10.00;;;;;;;5.10;83.42;101007.16;5090823;28;20035;-66
2022/01/31 11:28:46;;;;;;;45.75;9.73;;;;;;;5.13;84.07;101003.56;5091691;28;20513;-66
2022/01/31 11:31:16;;;;;;;40.45;9.98;;;;;;;5.15;84.63;100997.31;5091094;28;20495;-66
2022/01/31 11:33:43;;;;;;;44.55;9.95;;;;;;;5.10;83.38;101007.16;5091115;28;20366;-66
2022/01/31 11:36:08;;;;;;;39.55;9.85;;;;;;;5.08;83.88;100998.44;5090423;28;20023;-66
2022/01/31 11:38:34;;;;;;;49.90;10.85;;;;;;;5.12;84.23;101026.44;5091529;28;20483;-67
2022/01/31 11:41:03;;;;;;;45.78;10.07;;;;;;;5.14;85.01;101031.63;5090447;28;20085;-67
2022/01/31 11:43:29;;;;;;;37.50;9.63;;;;;;;4.99;84.47;101018.09;5091512;28;20501;-67
2022/01/31 11:45:59;;;;;;;41.15;9.57;;;;;;;5.06;84.62;101031.06;5089717;28;20109;-66
2022/01/31 11:48:29;;;;;;;43.65;9.27;;;;;;;5.09;84.79;101023.03;5091608;28;20309;-67
2022/01/31 11:50:57;;;;;;;49.30;11.27;;;;;;;5.06;85.10;101028.41;5090070;28;20030;-67
2022/01/31 11:53:27;;;;;;;44.75;10.93;;;;;;;4.98;85.08;101020.81;5092041;28;20118;-66